createdAt,value
2016-08-19T00:00:56.902Z,0
2016-08-19T00:01:56.957Z,0
2016-08-19T00:02:56.877Z,0
2016-08-19T00:03:56.881Z,0
2016-08-19T00:04:56.859Z,0
2016-08-19T00:05:55.439Z,0
2016-08-19T00:06:56.840Z,0
2016-08-19T00:07:56.105Z,0
2016-08-19T00:08:55.386Z,0
2016-08-19T00:09:56.075Z,0
2016-08-19T00:10:56.781Z,0
2016-08-19T00:11:56.770Z,0
2016-08-19T00:12:56.751Z,0
2016-08-19T00:13:56.032Z,0
2016-08-19T00:14:56.008Z,0
2016-08-19T00:15:56.715Z,0
2016-08-19T00:16:56.719Z,0
2016-08-19T00:17:55.964Z,0
2016-08-19T00:18:55.981Z,0
2016-08-19T00:19:56.670Z,0
2016-08-19T00:20:55.220Z,0
2016-08-19T00:21:55.921Z,0
2016-08-19T00:22:55.243Z,0
2016-08-19T00:23:56.629Z,0
2016-08-19T00:24:56.596Z,0
2016-08-19T00:25:55.863Z,0
2016-08-19T00:26:55.842Z,0
2016-08-19T00:27:56.561Z,0
2016-08-19T00:28:55.870Z,0
2016-08-19T00:29:56.527Z,0
2016-08-19T00:30:55.823Z,0
2016-08-19T00:31:55.071Z,0
2016-08-19T00:32:55.777Z,0
2016-08-19T00:33:55.780Z,0
2016-08-19T00:34:55.745Z,0
2016-08-19T00:35:56.449Z,0
2016-08-19T00:36:56.426Z,0
2016-08-19T00:37:56.417Z,0
2016-08-19T00:38:56.419Z,0
2016-08-19T00:39:56.393Z,0
2016-08-19T00:40:55.705Z,0
2016-08-19T00:41:56.359Z,0
2016-08-19T00:42:55.650Z,0
2016-08-19T00:43:56.345Z,0
2016-08-19T00:44:55.630Z,0
2016-08-19T00:45:56.323Z,0
2016-08-19T00:46:55.589Z,0
2016-08-19T00:47:54.873Z,0
2016-08-19T00:48:56.294Z,0
2016-08-19T00:49:55.548Z,0
2016-08-19T00:50:55.538Z,0
2016-08-19T00:51:54.801Z,0
2016-08-19T00:52:56.282Z,0
2016-08-19T00:53:56.214Z,0
2016-08-19T00:54:56.210Z,0
2016-08-19T00:55:56.189Z,0
2016-08-19T00:56:55.427Z,0
2016-08-19T00:57:56.157Z,0
2016-08-19T00:58:56.163Z,0
2016-08-19T00:59:56.149Z,0
2016-08-19T01:00:56.189Z,0
2016-08-19T01:01:55.385Z,0
2016-08-19T01:02:54.650Z,0
2016-08-19T01:03:56.063Z,0
2016-08-19T01:04:56.064Z,0
2016-08-19T01:05:54.600Z,0
2016-08-19T01:06:56.030Z,0
2016-08-19T01:07:56.021Z,0
2016-08-19T01:08:54.586Z,0
2016-08-19T01:09:55.996Z,0
2016-08-19T01:10:55.983Z,0
2016-08-19T01:11:55.967Z,0
2016-08-19T01:12:55.226Z,0
2016-08-19T01:13:54.498Z,0
2016-08-19T01:14:55.919Z,0
2016-08-19T01:15:55.186Z,0
2016-08-19T01:16:55.250Z,0
2016-08-19T01:17:55.163Z,0
2016-08-19T01:18:55.858Z,0
2016-08-19T01:19:55.125Z,0
2016-08-19T01:20:55.124Z,0
2016-08-19T01:21:55.811Z,0
2016-08-19T01:22:55.808Z,0
2016-08-19T01:23:55.148Z,0
2016-08-19T01:24:55.069Z,0
2016-08-19T01:25:55.062Z,0
2016-08-19T01:26:55.826Z,0
2016-08-19T01:27:55.022Z,0
2016-08-19T01:28:55.015Z,0
2016-08-19T01:29:55.719Z,0
2016-08-19T01:30:54.986Z,0
2016-08-19T01:31:55.718Z,0
2016-08-19T01:32:54.965Z,0
2016-08-19T01:33:55.669Z,0
2016-08-19T01:34:54.209Z,0
2016-08-19T01:35:54.292Z,0
2016-08-19T01:36:55.610Z,0
2016-08-19T01:37:55.589Z,0
2016-08-19T01:38:55.592Z,0
2016-08-19T01:39:55.567Z,0
2016-08-19T01:40:55.559Z,0
2016-08-19T01:41:55.538Z,0
2016-08-19T01:42:55.535Z,0
2016-08-19T01:43:54.147Z,0
2016-08-19T01:44:54.769Z,0
2016-08-19T01:45:55.489Z,0
2016-08-19T01:46:55.478Z,0
2016-08-19T01:47:54.020Z,0
2016-08-19T01:48:54.018Z,0
2016-08-19T01:49:55.435Z,0
2016-08-19T01:50:54.791Z,0
2016-08-19T01:51:53.979Z,0
2016-08-19T01:52:54.757Z,0
2016-08-19T01:53:54.681Z,0
2016-08-19T01:54:55.346Z,0
2016-08-19T01:55:55.429Z,0
2016-08-19T01:56:55.338Z,0
2016-08-19T01:57:55.331Z,0
2016-08-19T01:58:55.302Z,0
2016-08-19T01:59:54.575Z,0
2016-08-19T02:00:53.843Z,0
2016-08-19T02:01:54.550Z,0
2016-08-19T02:02:55.247Z,0
2016-08-19T02:03:53.801Z,0
2016-08-19T02:04:55.223Z,0
2016-08-19T02:05:53.864Z,0
2016-08-19T02:06:54.486Z,0
2016-08-19T02:07:55.184Z,0
2016-08-19T02:08:55.168Z,0
2016-08-19T02:09:55.232Z,0
2016-08-19T02:10:54.427Z,0
2016-08-19T02:11:55.198Z,0
2016-08-19T02:12:54.392Z,0
2016-08-19T02:13:55.153Z,0
2016-08-19T02:14:53.658Z,0
2016-08-19T02:15:55.108Z,0
2016-08-19T02:16:54.329Z,0
2016-08-19T02:17:55.069Z,0
2016-08-19T02:18:53.596Z,0
2016-08-19T02:19:55.045Z,0
2016-08-19T02:20:54.984Z,0
2016-08-19T02:21:54.988Z,0
2016-08-19T02:22:54.969Z,0
2016-08-19T02:23:53.537Z,0
2016-08-19T02:24:54.223Z,0
2016-08-19T02:25:54.218Z,0
2016-08-19T02:26:54.924Z,0
2016-08-19T02:27:54.897Z,0
2016-08-19T02:28:54.901Z,0
2016-08-19T02:29:54.867Z,0
2016-08-19T02:30:53.439Z,0
2016-08-19T02:31:54.124Z,0
2016-08-19T02:32:54.823Z,0
2016-08-19T02:33:54.148Z,0
2016-08-19T02:34:53.376Z,0
2016-08-19T02:35:54.076Z,0
2016-08-19T02:36:53.339Z,0
2016-08-19T02:37:54.033Z,0
2016-08-19T02:38:54.029Z,0
2016-08-19T02:39:54.722Z,0
2016-08-19T02:40:54.713Z,0
2016-08-19T02:41:53.268Z,0
2016-08-19T02:42:54.682Z,0
2016-08-19T02:43:54.667Z,0
2016-08-19T02:44:54.672Z,0
2016-08-19T02:45:53.933Z,0
2016-08-19T02:46:53.907Z,0
2016-08-19T02:47:54.609Z,0
2016-08-19T02:48:53.212Z,0
2016-08-19T02:49:53.863Z,0
2016-08-19T02:50:54.561Z,0
2016-08-19T02:51:54.613Z,0
2016-08-19T02:52:53.828Z,0
2016-08-19T02:53:53.814Z,0
2016-08-19T02:54:53.779Z,0
2016-08-19T02:55:54.577Z,0
2016-08-19T02:56:54.488Z,0
2016-08-19T02:57:54.470Z,0
2016-08-19T02:58:54.448Z,0
2016-08-19T02:59:54.446Z,0
2016-08-19T03:00:54.426Z,0
2016-08-19T03:01:53.714Z,0
2016-08-19T03:02:53.824Z,0
2016-08-19T03:03:54.397Z,0
2016-08-19T03:04:53.697Z,0
2016-08-19T03:05:53.647Z,0
2016-08-19T03:06:53.626Z,0
2016-08-19T03:07:54.338Z,0
2016-08-19T03:08:53.590Z,0
2016-08-19T03:09:54.286Z,0
2016-08-19T03:10:53.594Z,0
2016-08-19T03:11:54.289Z,0
2016-08-19T03:12:54.247Z,0
2016-08-19T03:13:53.527Z,0
2016-08-19T03:14:54.230Z,0
2016-08-19T03:15:53.498Z,0
2016-08-19T03:16:54.204Z,0
2016-08-19T03:17:54.173Z,0
2016-08-19T03:18:54.173Z,0
2016-08-19T03:19:53.448Z,0
2016-08-19T03:20:53.477Z,0
2016-08-19T03:21:54.139Z,0
2016-08-19T03:22:53.489Z,0
2016-08-19T03:23:53.390Z,0
2016-08-19T03:24:53.430Z,0
2016-08-19T03:25:53.357Z,0
2016-08-19T03:26:54.055Z,0
2016-08-19T03:27:53.315Z,0
2016-08-19T03:28:54.025Z,0
2016-08-19T03:29:54.017Z,0
2016-08-19T03:30:53.278Z,0
2016-08-19T03:31:53.269Z,0
2016-08-19T03:32:52.574Z,0
2016-08-19T03:33:53.223Z,0
2016-08-19T03:34:53.941Z,0
2016-08-19T03:35:53.909Z,0
2016-08-19T03:36:53.919Z,0
2016-08-19T03:37:53.898Z,0
2016-08-19T03:38:53.159Z,0
2016-08-19T03:39:53.868Z,0
2016-08-19T03:40:53.851Z,0
2016-08-19T03:41:53.842Z,0
2016-08-19T03:42:53.909Z,0
2016-08-19T03:43:53.152Z,0
2016-08-19T03:44:53.984Z,0
2016-08-19T03:45:53.060Z,0
2016-08-19T03:46:53.764Z,4
2016-08-19T03:47:53.762Z,0
2016-08-19T03:48:53.731Z,0
2016-08-19T03:49:52.306Z,4
2016-08-19T03:50:53.748Z,4
2016-08-19T03:51:53.678Z,4
2016-08-19T03:52:53.678Z,4
2016-08-19T03:53:53.647Z,4
2016-08-19T03:54:52.948Z,4
2016-08-19T03:55:53.640Z,8
2016-08-19T03:56:52.935Z,8
2016-08-19T03:57:53.606Z,8
2016-08-19T03:58:53.576Z,12
2016-08-19T03:59:53.572Z,12
2016-08-19T04:00:52.843Z,12
2016-08-19T04:01:52.827Z,12
2016-08-19T04:02:53.517Z,20
2016-08-19T04:03:53.529Z,20
2016-08-19T04:04:52.788Z,24
2016-08-19T04:05:53.499Z,28
2016-08-19T04:06:52.750Z,32
2016-08-19T04:07:53.450Z,32
2016-08-19T04:08:53.422Z,40
2016-08-19T04:09:53.410Z,44
2016-08-19T04:10:53.421Z,52
2016-08-19T04:11:53.395Z,56
2016-08-19T04:12:53.388Z,60
2016-08-19T04:13:52.668Z,72
2016-08-19T04:14:52.640Z,80
2016-08-19T04:15:53.338Z,88
2016-08-19T04:16:52.598Z,96
2016-08-19T04:17:52.587Z,104
2016-08-19T04:18:52.619Z,116
2016-08-19T04:19:53.262Z,124
2016-08-19T04:20:53.262Z,136
2016-08-19T04:21:52.520Z,148
2016-08-19T04:22:53.217Z,160
2016-08-19T04:23:52.506Z,176
2016-08-19T04:24:53.192Z,188
2016-08-19T04:25:51.759Z,204
2016-08-19T04:26:53.180Z,220
2016-08-19T04:27:53.160Z,236
2016-08-19T04:28:53.136Z,252
2016-08-19T04:29:53.105Z,268
2016-08-19T04:30:52.397Z,288
2016-08-19T04:31:52.376Z,308
2016-08-19T04:32:53.068Z,328
2016-08-19T04:33:53.059Z,348
2016-08-19T04:34:53.108Z,368
2016-08-19T04:35:52.479Z,392
2016-08-19T04:36:53.019Z,412
2016-08-19T04:37:52.998Z,436
2016-08-19T04:38:52.266Z,456
2016-08-19T04:39:52.250Z,480
2016-08-19T04:40:53.000Z,508
2016-08-19T04:41:52.959Z,532
2016-08-19T04:42:52.207Z,552
2016-08-19T04:43:52.179Z,580
2016-08-19T04:44:51.473Z,604
2016-08-19T04:45:52.876Z,632
2016-08-19T04:46:52.880Z,660
2016-08-19T04:47:52.149Z,684
2016-08-19T04:48:52.834Z,712
2016-08-19T04:49:52.111Z,736
2016-08-19T04:50:52.804Z,764
2016-08-19T04:51:52.815Z,792
2016-08-19T04:52:52.139Z,816
2016-08-19T04:53:52.775Z,844
2016-08-19T04:54:52.025Z,872
2016-08-19T04:55:52.015Z,896
2016-08-19T04:56:52.727Z,928
2016-08-19T04:57:51.991Z,952
2016-08-19T04:58:51.990Z,980
2016-08-19T04:59:52.665Z,1008
2016-08-19T05:00:51.956Z,1036
2016-08-19T05:01:51.990Z,1064
2016-08-19T05:02:52.624Z,1092
2016-08-19T05:03:52.679Z,1120
2016-08-19T05:04:52.589Z,1144
2016-08-19T05:05:51.880Z,1172
2016-08-19T05:06:51.857Z,1200
2016-08-19T05:07:50.396Z,1228
2016-08-19T05:08:52.549Z,1256
2016-08-19T05:09:51.180Z,1284
2016-08-19T05:10:51.788Z,1308
2016-08-19T05:11:51.771Z,1340
2016-08-19T05:12:52.469Z,1368
2016-08-19T05:13:51.791Z,1396
2016-08-19T05:14:52.439Z,1428
2016-08-19T05:15:51.716Z,1456
2016-08-19T05:16:50.989Z,1480
2016-08-19T05:17:51.756Z,1508
2016-08-19T05:18:52.381Z,1536
2016-08-19T05:19:52.370Z,1564
2016-08-19T05:20:51.708Z,1592
2016-08-19T05:21:51.650Z,1616
2016-08-19T05:22:50.900Z,1640
2016-08-19T05:23:52.360Z,1668
2016-08-19T05:24:52.299Z,1700
2016-08-19T05:25:51.646Z,1728
2016-08-19T05:26:51.555Z,1752
2016-08-19T05:27:51.539Z,1780
2016-08-19T05:28:50.826Z,1812
2016-08-19T05:29:50.847Z,1844
2016-08-19T05:30:52.219Z,1872
2016-08-19T05:31:50.769Z,1904
2016-08-19T05:32:51.466Z,1932
2016-08-19T05:33:52.180Z,1960
2016-08-19T05:34:51.441Z,1988
2016-08-19T05:35:51.433Z,2016
2016-08-19T05:36:52.131Z,2044
2016-08-19T05:37:51.436Z,2068
2016-08-19T05:38:51.396Z,2100
2016-08-19T05:39:51.435Z,2128
2016-08-19T05:40:50.636Z,2156
2016-08-19T05:41:51.333Z,2184
2016-08-19T05:42:51.318Z,2212
2016-08-19T05:43:50.608Z,2236
2016-08-19T05:44:51.997Z,2268
2016-08-19T05:45:51.277Z,2296
2016-08-19T05:46:50.552Z,2324
2016-08-19T05:47:51.985Z,2352
2016-08-19T05:48:51.960Z,2376
2016-08-19T05:49:51.229Z,2408
2016-08-19T05:50:51.207Z,2436
2016-08-19T05:51:51.209Z,2468
2016-08-19T05:52:51.886Z,2500
2016-08-19T05:53:51.220Z,2528
2016-08-19T05:54:51.860Z,2560
2016-08-19T05:55:51.900Z,2584
2016-08-19T05:56:51.851Z,2612
2016-08-19T05:57:51.127Z,2636
2016-08-19T05:58:51.825Z,2660
2016-08-19T05:59:51.148Z,2684
2016-08-19T06:00:51.776Z,2708
2016-08-19T06:01:51.050Z,2720
2016-08-19T06:02:51.033Z,2752
2016-08-19T06:03:51.031Z,2772
2016-08-19T06:04:51.010Z,2800
2016-08-19T06:05:51.734Z,2824
2016-08-19T06:06:51.692Z,2852
2016-08-19T06:07:50.970Z,2876
2016-08-19T06:08:50.967Z,2896
2016-08-19T06:09:50.956Z,2920
2016-08-19T06:10:50.210Z,2944
2016-08-19T06:11:50.923Z,2964
2016-08-19T06:12:50.191Z,2988
2016-08-19T06:13:50.881Z,3016
2016-08-19T06:14:51.585Z,3040
2016-08-19T06:15:50.949Z,3068
2016-08-19T06:16:51.558Z,3088
2016-08-19T06:17:50.122Z,3116
2016-08-19T06:18:50.804Z,3144
2016-08-19T06:19:51.571Z,3172
2016-08-19T06:20:50.787Z,3192
2016-08-19T06:21:51.509Z,3220
2016-08-19T06:22:50.833Z,3244
2016-08-19T06:23:51.499Z,3272
2016-08-19T06:24:51.440Z,3304
2016-08-19T06:25:51.555Z,3324
2016-08-19T06:26:51.421Z,3360
2016-08-19T06:27:51.451Z,3384
2016-08-19T06:28:50.669Z,3412
2016-08-19T06:29:51.389Z,3440
2016-08-19T06:30:51.351Z,3464
2016-08-19T06:31:51.341Z,3484
2016-08-19T06:32:50.665Z,3508
2016-08-19T06:33:50.609Z,3540
2016-08-19T06:34:51.318Z,3564
2016-08-19T06:35:50.571Z,3588
2016-08-19T06:36:49.862Z,3620
2016-08-19T06:37:50.545Z,3648
2016-08-19T06:38:51.250Z,3688
2016-08-19T06:39:51.253Z,3716
2016-08-19T06:40:51.221Z,3756
2016-08-19T06:41:50.496Z,3792
2016-08-19T06:42:50.562Z,3820
2016-08-19T06:43:50.480Z,3860
2016-08-19T06:44:51.161Z,3892
2016-08-19T06:45:51.179Z,3928
2016-08-19T06:46:51.150Z,3972
2016-08-19T06:47:51.127Z,4008
2016-08-19T06:48:51.120Z,4044
2016-08-19T06:49:49.733Z,4088
2016-08-19T06:50:51.098Z,4128
2016-08-19T06:51:50.367Z,4176
2016-08-19T06:52:51.063Z,4216
2016-08-19T06:53:50.321Z,4264
2016-08-19T06:54:50.367Z,4308
2016-08-19T06:55:51.011Z,4344
2016-08-19T06:56:50.290Z,4396
2016-08-19T06:57:50.978Z,4440
2016-08-19T06:58:50.267Z,4480
2016-08-19T06:59:50.971Z,4528
2016-08-19T07:00:50.245Z,4564
2016-08-19T07:01:50.936Z,4600
2016-08-19T07:02:48.813Z,4644
2016-08-19T07:03:50.908Z,4688
2016-08-19T07:04:50.197Z,4728
2016-08-19T07:05:50.165Z,4792
2016-08-19T07:06:50.181Z,4872
2016-08-19T07:07:50.139Z,7048
2016-08-19T07:08:48.696Z,20384
2016-08-19T07:09:49.391Z,41248
2016-08-19T07:10:50.871Z,71360
2016-08-19T07:11:49.381Z,95712
2016-08-19T07:12:50.892Z,100192
2016-08-19T07:13:50.815Z,93472
2016-08-19T07:14:50.056Z,97024
2016-08-19T07:15:50.752Z,102784
2016-08-19T07:16:50.064Z,102784
2016-08-19T07:17:50.010Z,79072
2016-08-19T07:18:50.027Z,31712
2016-08-19T07:19:50.728Z,7168
2016-08-19T07:20:49.989Z,6708
2016-08-19T07:21:49.984Z,6636
2016-08-19T07:22:48.535Z,6656
2016-08-19T07:23:49.963Z,6688
2016-08-19T07:24:49.240Z,6740
2016-08-19T07:25:50.683Z,6816
2016-08-19T07:26:49.212Z,6860
2016-08-19T07:27:50.671Z,6944
2016-08-19T07:28:49.943Z,7024
2016-08-19T07:29:50.651Z,7092
2016-08-19T07:30:49.923Z,7172
2016-08-19T07:31:49.899Z,7228
2016-08-19T07:32:50.617Z,7316
2016-08-19T07:33:50.605Z,7404
2016-08-19T07:34:50.663Z,7464
2016-08-19T07:35:50.604Z,7532
2016-08-19T07:36:50.598Z,7620
2016-08-19T07:37:50.620Z,7712
2016-08-19T07:38:50.606Z,7820
2016-08-19T07:39:50.621Z,7928
2016-08-19T07:40:50.599Z,8128
2016-08-19T07:41:49.897Z,8340
2016-08-19T07:42:50.592Z,8916
2016-08-19T07:43:50.580Z,27392
2016-08-19T07:44:49.160Z,76192
2016-08-19T07:45:49.870Z,99584
2016-08-19T07:46:49.865Z,98304
2016-08-19T07:47:50.588Z,94624
2016-08-19T07:48:50.580Z,96384
2016-08-19T07:49:50.592Z,105184
2016-08-19T07:50:49.864Z,105440
2016-08-19T07:51:50.592Z,95616
2016-08-19T07:52:49.851Z,91424
2016-08-19T07:53:49.852Z,96256
2016-08-19T07:54:49.867Z,98304
2016-08-19T07:55:50.581Z,95360
2016-08-19T07:56:49.869Z,97216
2016-08-19T07:57:50.571Z,99552
2016-08-19T07:58:50.583Z,92416
2016-08-19T07:59:49.865Z,87808
2016-08-19T08:00:49.861Z,92960
2016-08-19T08:01:49.933Z,98912
2016-08-19T08:02:50.584Z,98848
2016-08-19T08:03:50.580Z,96160
2016-08-19T08:04:49.903Z,92576
2016-08-19T08:05:50.589Z,89376
2016-08-19T08:06:49.173Z,85856
2016-08-19T08:07:49.871Z,85280
2016-08-19T08:08:50.599Z,91904
2016-08-19T08:09:49.872Z,96448
2016-08-19T08:10:50.602Z,92000
2016-08-19T08:11:49.880Z,87104
2016-08-19T08:12:49.160Z,91744
2016-08-19T08:13:49.256Z,93824
2016-08-19T08:14:49.883Z,85440
2016-08-19T08:15:50.618Z,81888
2016-08-19T08:16:50.617Z,84320
2016-08-19T08:17:49.882Z,85056
2016-08-19T08:18:48.467Z,85856
2016-08-19T08:19:49.898Z,83904
2016-08-19T08:20:49.204Z,82528
2016-08-19T08:21:49.194Z,82720
2016-08-19T08:22:50.622Z,77824
2016-08-19T08:23:49.994Z,80352
2016-08-19T08:24:49.971Z,76640
2016-08-19T08:25:49.923Z,78656
2016-08-19T08:26:49.956Z,91840
2016-08-19T08:27:49.337Z,79168
2016-08-19T08:28:49.218Z,71264
2016-08-19T08:29:50.652Z,78720
2016-08-19T08:30:50.653Z,78624
2016-08-19T08:31:49.222Z,76672
2016-08-19T08:32:49.221Z,74528
2016-08-19T08:33:49.942Z,82176
2016-08-19T08:34:49.949Z,87168
2016-08-19T08:35:49.270Z,81184
2016-08-19T08:36:49.242Z,76128
2016-08-19T08:37:49.980Z,83424
2016-08-19T08:38:50.031Z,86208
2016-08-19T08:39:49.963Z,75328
2016-08-19T08:40:50.673Z,77760
2016-08-19T08:41:50.700Z,83584
2016-08-19T08:42:49.959Z,84640
2016-08-19T08:43:50.702Z,86368
2016-08-19T08:44:49.982Z,83712
2016-08-19T08:45:49.979Z,77920
2016-08-19T08:46:50.003Z,82112
2016-08-19T08:47:49.274Z,83328
2016-08-19T08:48:50.711Z,80160
2016-08-19T08:49:50.721Z,81696
2016-08-19T08:50:50.743Z,80320
2016-08-19T08:51:50.014Z,80384
2016-08-19T08:52:50.732Z,80352
2016-08-19T08:53:50.037Z,80576
2016-08-19T08:54:50.037Z,82048
2016-08-19T08:55:50.031Z,80288
2016-08-19T08:56:50.103Z,78752
2016-08-19T08:57:49.336Z,80352
2016-08-19T08:58:49.377Z,80256
2016-08-19T08:59:50.781Z,81536
2016-08-19T09:00:50.102Z,88032
2016-08-19T09:01:50.768Z,74624
2016-08-19T09:02:49.353Z,68992
2016-08-19T09:03:50.113Z,71264
2016-08-19T09:04:50.786Z,60352
2016-08-19T09:05:50.088Z,65952
2016-08-19T09:06:50.105Z,69824
2016-08-19T09:07:50.802Z,67680
2016-08-19T09:08:50.094Z,70240
2016-08-19T09:09:49.410Z,74592
2016-08-19T09:10:50.109Z,72032
2016-08-19T09:11:50.827Z,69024
2016-08-19T09:12:50.114Z,69728
2016-08-19T09:13:50.146Z,72000
2016-08-19T09:14:49.397Z,75616
2016-08-19T09:15:50.848Z,78336
2016-08-19T09:16:50.840Z,74464
2016-08-19T09:17:50.850Z,78400
2016-08-19T09:18:50.865Z,82016
2016-08-19T09:19:50.866Z,77568
2016-08-19T09:20:50.860Z,76064
2016-08-19T09:21:50.165Z,74176
2016-08-19T09:22:50.165Z,75072
2016-08-19T09:23:50.938Z,73792
2016-08-19T09:24:50.235Z,70272
2016-08-19T09:25:50.892Z,75424
2016-08-19T09:26:50.180Z,73280
2016-08-19T09:27:50.900Z,73408
2016-08-19T09:28:50.912Z,73248
2016-08-19T09:29:50.196Z,70400
2016-08-19T09:30:50.916Z,69152
2016-08-19T09:31:50.208Z,68032
2016-08-19T09:32:50.200Z,69312
2016-08-19T09:33:50.918Z,65248
2016-08-19T09:34:50.215Z,69568
2016-08-19T09:35:50.940Z,72416
2016-08-19T09:36:51.017Z,70592
2016-08-19T09:37:50.226Z,71808
2016-08-19T09:38:50.232Z,70272
2016-08-19T09:39:49.512Z,64256
2016-08-19T09:40:50.961Z,67040
2016-08-19T09:41:50.966Z,65280
2016-08-19T09:42:50.258Z,62112
2016-08-19T09:43:49.543Z,62720
2016-08-19T09:44:50.248Z,64064
2016-08-19T09:45:50.987Z,62080
2016-08-19T09:46:50.980Z,61600
2016-08-19T09:47:50.984Z,60672
2016-08-19T09:48:48.843Z,60576
2016-08-19T09:49:51.006Z,60960
2016-08-19T09:50:50.284Z,57408
2016-08-19T09:51:50.998Z,57792
2016-08-19T09:52:50.290Z,59968
2016-08-19T09:53:49.622Z,58752
2016-08-19T09:54:50.293Z,58048
2016-08-19T09:55:50.311Z,57504
2016-08-19T09:56:50.323Z,56288
2016-08-19T09:57:51.027Z,57344
2016-08-19T09:58:51.050Z,55520
2016-08-19T09:59:50.358Z,54112
2016-08-19T10:00:50.312Z,55456
2016-08-19T10:01:49.597Z,57728
2016-08-19T10:02:50.321Z,57312
2016-08-19T10:03:48.897Z,56288
2016-08-19T10:04:51.051Z,55040
2016-08-19T10:05:49.640Z,54336
2016-08-19T10:06:51.053Z,47424
2016-08-19T10:07:48.915Z,47840
2016-08-19T10:08:51.058Z,49760
2016-08-19T10:09:51.069Z,50912
2016-08-19T10:10:50.350Z,50624
2016-08-19T10:11:50.337Z,52064
2016-08-19T10:12:51.071Z,52000
2016-08-19T10:13:49.639Z,48896
2016-08-19T10:14:50.358Z,44960
2016-08-19T10:15:50.348Z,43840
2016-08-19T10:16:49.629Z,45696
2016-08-19T10:17:51.071Z,47264
2016-08-19T10:18:51.122Z,40768
2016-08-19T10:19:50.346Z,20960
2016-08-19T10:20:51.142Z,10180
2016-08-19T10:21:51.070Z,9812
2016-08-19T10:22:51.135Z,9620
2016-08-19T10:23:50.358Z,9560
2016-08-19T10:24:50.389Z,9516
2016-08-19T10:25:50.461Z,9508
2016-08-19T10:26:51.106Z,9488
2016-08-19T10:27:51.056Z,9484
2016-08-19T10:28:50.350Z,9484
2016-08-19T10:29:50.351Z,9472
2016-08-19T10:30:51.071Z,9460
2016-08-19T10:31:50.344Z,9456
2016-08-19T10:32:50.550Z,9484
2016-08-19T10:33:49.701Z,9488
2016-08-19T10:34:51.125Z,9496
2016-08-19T10:35:50.339Z,9536
2016-08-19T10:36:51.038Z,9568
2016-08-19T10:37:49.611Z,9600
2016-08-19T10:38:50.330Z,9612
2016-08-19T10:39:50.330Z,9592
2016-08-19T10:40:50.311Z,9616
2016-08-19T10:41:51.138Z,9616
2016-08-19T10:42:49.614Z,9620
2016-08-19T10:43:51.024Z,9628
2016-08-19T10:44:50.307Z,9668
2016-08-19T10:45:51.005Z,9652
2016-08-19T10:46:51.028Z,9652
2016-08-19T10:47:51.089Z,9716
2016-08-19T10:48:50.285Z,9760
2016-08-19T10:49:51.007Z,9744
2016-08-19T10:50:50.299Z,9756
2016-08-19T10:51:50.315Z,9780
2016-08-19T10:52:50.276Z,9800
2016-08-19T10:53:50.287Z,9800
2016-08-19T10:54:50.276Z,9816
2016-08-19T10:55:50.991Z,9816
2016-08-19T10:56:50.999Z,9832
2016-08-19T10:57:50.990Z,9788
2016-08-19T10:58:50.980Z,9864
2016-08-19T10:59:49.551Z,9904
2016-08-19T11:00:49.560Z,9756
2016-08-19T11:01:50.257Z,9804
2016-08-19T11:02:50.965Z,9856
2016-08-19T11:03:50.249Z,9820
2016-08-19T11:04:50.250Z,9812
2016-08-19T11:05:50.248Z,9776
2016-08-19T11:06:50.290Z,9808
2016-08-19T11:07:48.804Z,9928
2016-08-19T11:08:50.267Z,9880
2016-08-19T11:09:50.247Z,9952
2016-08-19T11:10:49.521Z,9976
2016-08-19T11:11:49.507Z,10012
2016-08-19T11:12:50.237Z,9936
2016-08-19T11:13:50.213Z,9976
2016-08-19T11:14:49.508Z,9892
2016-08-19T11:15:50.220Z,9884
2016-08-19T11:16:50.226Z,9840
2016-08-19T11:17:50.921Z,9916
2016-08-19T11:18:49.516Z,9852
2016-08-19T11:19:49.486Z,9880
2016-08-19T11:20:50.214Z,9864
2016-08-19T11:21:50.214Z,9832
2016-08-19T11:22:49.486Z,9800
2016-08-19T11:23:49.494Z,9892
2016-08-19T11:24:50.205Z,9948
2016-08-19T11:25:48.767Z,9956
2016-08-19T11:26:50.930Z,9824
2016-08-19T11:27:49.479Z,9904
2016-08-19T11:28:50.193Z,9820
2016-08-19T11:29:50.176Z,9760
2016-08-19T11:30:50.191Z,9708
2016-08-19T11:31:50.179Z,9868
2016-08-19T11:32:50.177Z,9984
2016-08-19T11:33:50.239Z,9976
2016-08-19T11:34:50.880Z,9940
2016-08-19T11:35:50.877Z,9892
2016-08-19T11:36:49.436Z,9876
2016-08-19T11:37:50.176Z,9944
2016-08-19T11:38:50.145Z,9904
2016-08-19T11:39:50.137Z,9748
2016-08-19T11:40:50.147Z,10024
2016-08-19T11:41:50.268Z,10084
2016-08-19T11:42:50.130Z,10068
2016-08-19T11:43:48.713Z,10200
2016-08-19T11:44:50.859Z,10404
2016-08-19T11:45:49.410Z,10452
2016-08-19T11:46:50.848Z,10388
2016-08-19T11:47:50.139Z,10376
2016-08-19T11:48:50.143Z,9936
2016-08-19T11:49:50.135Z,8796
2016-08-19T11:50:50.835Z,8384
2016-08-19T11:51:50.132Z,8972
2016-08-19T11:52:49.414Z,9608
2016-08-19T11:53:48.768Z,9088
2016-08-19T11:54:50.829Z,9520
2016-08-19T11:55:49.413Z,9680
2016-08-19T11:56:50.847Z,9248
2016-08-19T11:57:49.381Z,9064
2016-08-19T11:58:49.450Z,9452
2016-08-19T11:59:50.098Z,8380
2016-08-19T12:00:50.806Z,8788
2016-08-19T12:01:50.103Z,8884
2016-08-19T12:02:48.660Z,9076
2016-08-19T12:03:50.119Z,8692
2016-08-19T12:04:50.108Z,8720
2016-08-19T12:05:50.821Z,8312
2016-08-19T12:06:50.105Z,8488
2016-08-19T12:07:50.080Z,8524
2016-08-19T12:08:50.064Z,8396
2016-08-19T12:09:50.056Z,8556
2016-08-19T12:10:50.066Z,8792
2016-08-19T12:11:50.069Z,8848
2016-08-19T12:12:50.770Z,9288
2016-08-19T12:13:50.770Z,8712
2016-08-19T12:14:49.323Z,9508
2016-08-19T12:15:50.770Z,8700
2016-08-19T12:16:49.380Z,9620
2016-08-19T12:17:50.738Z,10628
2016-08-19T12:18:50.743Z,11032
2016-08-19T12:19:49.318Z,11064
2016-08-19T12:20:50.775Z,10628
2016-08-19T12:21:50.026Z,9564
2016-08-19T12:22:50.743Z,9184
2016-08-19T12:23:50.031Z,8248
2016-08-19T12:24:50.736Z,7736
2016-08-19T12:25:50.007Z,9764
2016-08-19T12:26:50.719Z,10104
2016-08-19T12:27:50.010Z,10468
2016-08-19T12:28:49.979Z,10336
2016-08-19T12:29:49.990Z,9404
2016-08-19T12:30:49.967Z,9032
2016-08-19T12:31:50.709Z,10528
2016-08-19T12:32:49.256Z,9996
2016-08-19T12:33:50.691Z,10052
2016-08-19T12:34:49.986Z,9956
2016-08-19T12:35:49.335Z,9800
2016-08-19T12:36:49.961Z,9808
2016-08-19T12:37:49.966Z,9444
2016-08-19T12:38:49.966Z,9048
2016-08-19T12:39:49.970Z,8468
2016-08-19T12:40:50.674Z,6996
2016-08-19T12:41:50.660Z,5832
2016-08-19T12:42:50.660Z,7440
2016-08-19T12:43:50.666Z,7596
2016-08-19T12:44:49.932Z,7680
2016-08-19T12:45:49.949Z,8192
2016-08-19T12:46:49.927Z,8700
2016-08-19T12:47:49.218Z,8908
2016-08-19T12:48:50.652Z,9040
2016-08-19T12:49:49.195Z,9540
2016-08-19T12:50:49.936Z,9752
2016-08-19T12:51:49.961Z,9844
2016-08-19T12:52:50.624Z,9764
2016-08-19T12:53:49.191Z,9844
2016-08-19T12:54:49.910Z,9788
2016-08-19T12:55:49.917Z,9376
2016-08-19T12:56:50.608Z,9872
2016-08-19T12:57:49.888Z,9912
2016-08-19T12:58:49.168Z,9736
2016-08-19T12:59:50.647Z,9556
2016-08-19T13:00:49.174Z,9584
2016-08-19T13:01:49.160Z,9484
2016-08-19T13:02:49.868Z,9436
2016-08-19T13:03:49.882Z,9332
2016-08-19T13:04:49.950Z,9124
2016-08-19T13:05:50.578Z,8736
2016-08-19T13:06:49.847Z,8532
2016-08-19T13:07:49.137Z,8488
2016-08-19T13:08:49.847Z,8644
2016-08-19T13:09:49.834Z,8952
2016-08-19T13:10:49.123Z,9036
2016-08-19T13:11:49.835Z,9188
2016-08-19T13:12:49.107Z,9212
2016-08-19T13:13:50.548Z,7784
2016-08-19T13:14:50.537Z,9060
2016-08-19T13:15:49.123Z,9080
2016-08-19T13:16:49.817Z,9112
2016-08-19T13:17:49.807Z,8884
2016-08-19T13:18:49.832Z,9096
2016-08-19T13:19:49.794Z,9160
2016-08-19T13:20:49.806Z,8916
2016-08-19T13:21:49.791Z,7828
2016-08-19T13:22:49.869Z,8076
2016-08-19T13:23:49.087Z,8716
2016-08-19T13:24:49.837Z,7528
2016-08-19T13:25:49.047Z,8364
2016-08-19T13:26:49.776Z,8284
2016-08-19T13:27:49.118Z,9016
2016-08-19T13:28:49.796Z,9404
2016-08-19T13:29:49.779Z,9416
2016-08-19T13:30:49.041Z,9356
2016-08-19T13:31:49.746Z,9168
2016-08-19T13:32:49.746Z,9392
2016-08-19T13:33:49.034Z,9304
2016-08-19T13:34:49.750Z,9336
2016-08-19T13:35:49.728Z,9708
2016-08-19T13:36:49.026Z,9744
2016-08-19T13:37:50.445Z,9600
2016-08-19T13:38:50.438Z,9448